Terminal Aerodrome Forecast
Issued by NWS

Home | Current Version | Previous Version | Text Only | Print | Product List | Glossary On
Versions: 1 2 3 4 5 6 7 8 9 10 11 12 13 14 15 16 17 18 19 20 21 22 23 24
005
FTUS45 KREV 200520
TAFCXP
TAF
KCXP 200520Z 2006/2106 29005KT P6SM FEW120 BKN180
     FM201600 20009G18KT P6SM FEW050 BKN100
     FM202000 23014G25KT P6SM SCT050 BKN090
     FM202300 26012G24KT P6SM FEW070 SCT200
     FM210300 30010KT P6SM SKC=

USA.gov is the U.S. government's official web portal to all federal, state and local government web resources and services.